sensor_id;sensor_type;location;lat;lon;timestamp;temperature;humidity
9410;DHT22;4744;52.576;13.568;2024-02-21T00:01:43;6.80;92.50
9410;DHT22;4744;52.576;13.568;2024-02-21T00:04:09;6.80;92.50
9410;DHT22;4744;52.576;13.568;2024-02-21T00:06:38;6.80;92.40
9410;DHT22;4744;52.576;13.568;2024-02-21T00:09:05;6.80;92.20
9410;DHT22;4744;52.576;13.568;2024-02-21T00:11:32;6.80;92.10
9410;DHT22;4744;52.576;13.568;2024-02-21T00:14:00;6.90;92.10
9410;DHT22;4744;52.576;13.568;2024-02-21T00:16:27;6.90;92.10
9410;DHT22;4744;52.576;13.568;2024-02-21T00:18:54;6.80;92.30
9410;DHT22;4744;52.576;13.568;2024-02-21T00:21:21;6.80;92.50
9410;DHT22;4744;52.576;13.568;2024-02-21T00:23:48;6.80;92.30
9410;DHT22;4744;52.576;13.568;2024-02-21T00:26:16;6.80;92.20
9410;DHT22;4744;52.576;13.568;2024-02-21T00:28:43;6.80;92.20
9410;DHT22;4744;52.576;13.568;2024-02-21T00:31:11;6.80;92.30
9410;DHT22;4744;52.576;13.568;2024-02-21T00:33:38;6.80;92.00
9410;DHT22;4744;52.576;13.568;2024-02-21T00:36:05;6.80;92.10
9410;DHT22;4744;52.576;13.568;2024-02-21T00:38:32;6.80;91.80
9410;DHT22;4744;52.576;13.568;2024-02-21T00:40:59;6.80;91.60
9410;DHT22;4744;52.576;13.568;2024-02-21T00:43:26;6.80;91.80
9410;DHT22;4744;52.576;13.568;2024-02-21T00:45:52;6.80;91.70
9410;DHT22;4744;52.576;13.568;2024-02-21T00:48:21;6.80;91.80
9410;DHT22;4744;52.576;13.568;2024-02-21T00:50:48;6.80;91.90
9410;DHT22;4744;52.576;13.568;2024-02-21T00:53:15;6.80;91.60
9410;DHT22;4744;52.576;13.568;2024-02-21T00:55:41;6.80;91.60
9410;DHT22;4744;52.576;13.568;2024-02-21T00:58:12;6.80;91.50
9410;DHT22;4744;52.576;13.568;2024-02-21T01:00:39;6.90;91.40
9410;DHT22;4744;52.576;13.568;2024-02-21T01:03:06;6.90;91.50
9410;DHT22;4744;52.576;13.568;2024-02-21T01:05:34;6.90;91.20
9410;DHT22;4744;52.576;13.568;2024-02-21T01:08:01;6.90;91.10
9410;DHT22;4744;52.576;13.568;2024-02-21T01:10:28;6.90;91.30
9410;DHT22;4744;52.576;13.568;2024-02-21T01:12:55;6.80;91.60
9410;DHT22;4744;52.576;13.568;2024-02-21T01:15:22;6.80;91.30
9410;DHT22;4744;52.576;13.568;2024-02-21T01:17:49;6.80;91.50
9410;DHT22;4744;52.576;13.568;2024-02-21T01:20:20;6.80;91.50
9410;DHT22;4744;52.576;13.568;2024-02-21T01:22:48;6.80;91.00
9410;DHT22;4744;52.576;13.568;2024-02-21T01:25:15;6.90;90.90
9410;DHT22;4744;52.576;13.568;2024-02-21T01:27:42;6.90;90.70
9410;DHT22;4744;52.576;13.568;2024-02-21T01:30:10;6.90;90.90
9410;DHT22;4744;52.576;13.568;2024-02-21T01:32:37;6.90;90.60
9410;DHT22;4744;52.576;13.568;2024-02-21T01:35:04;6.90;90.40
9410;DHT22;4744;52.576;13.568;2024-02-21T01:37:31;6.90;90.20
9410;DHT22;4744;52.576;13.568;2024-02-21T01:40:00;6.90;90.30
9410;DHT22;4744;52.576;13.568;2024-02-21T01:42:28;6.90;90.20
9410;DHT22;4744;52.576;13.568;2024-02-21T01:44:55;6.90;90.40
9410;DHT22;4744;52.576;13.568;2024-02-21T01:47:22;6.90;90.20
9410;DHT22;4744;52.576;13.568;2024-02-21T01:49:49;6.90;90.20
9410;DHT22;4744;52.576;13.568;2024-02-21T01:52:17;6.90;90.20
9410;DHT22;4744;52.576;13.568;2024-02-21T01:54:44;6.90;90.40
9410;DHT22;4744;52.576;13.568;2024-02-21T01:57:14;6.90;90.30
9410;DHT22;4744;52.576;13.568;2024-02-21T01:59:41;7.00;89.70
9410;DHT22;4744;52.576;13.568;2024-02-21T02:02:08;7.00;89.60
9410;DHT22;4744;52.576;13.568;2024-02-21T02:04:37;7.00;89.50
9410;DHT22;4744;52.576;13.568;2024-02-21T02:07:04;7.00;89.80
9410;DHT22;4744;52.576;13.568;2024-02-21T02:09:33;7.00;89.80
9410;DHT22;4744;52.576;13.568;2024-02-21T02:12:00;7.00;90.10
9410;DHT22;4744;52.576;13.568;2024-02-21T02:14:29;7.00;90.10
9410;DHT22;4744;52.576;13.568;2024-02-21T02:16:55;6.90;89.90
9410;DHT22;4744;52.576;13.568;2024-02-21T02:19:22;6.90;90.20
9410;DHT22;4744;52.576;13.568;2024-02-21T02:21:52;6.90;90.00
9410;DHT22;4744;52.576;13.568;2024-02-21T02:24:24;6.90;90.20
9410;DHT22;4744;52.576;13.568;2024-02-21T02:26:52;6.90;90.30
9410;DHT22;4744;52.576;13.568;2024-02-21T02:29:19;6.90;90.10
9410;DHT22;4744;52.576;13.568;2024-02-21T02:31:46;6.90;90.40
9410;DHT22;4744;52.576;13.568;2024-02-21T02:34:13;6.90;90.70
9410;DHT22;4744;52.576;13.568;2024-02-21T02:36:40;6.90;91.10
9410;DHT22;4744;52.576;13.568;2024-02-21T02:39:06;6.90;91.90
9410;DHT22;4744;52.576;13.568;2024-02-21T02:41:36;6.90;92.80
9410;DHT22;4744;52.576;13.568;2024-02-21T02:44:04;6.90;93.40
9410;DHT22;4744;52.576;13.568;2024-02-21T02:46:30;6.80;94.20
9410;DHT22;4744;52.576;13.568;2024-02-21T02:48:57;6.80;94.90
9410;DHT22;4744;52.576;13.568;2024-02-21T02:51:24;6.70;95.70
9410;DHT22;4744;52.576;13.568;2024-02-21T02:53:51;6.70;96.00
9410;DHT22;4744;52.576;13.568;2024-02-21T02:56:18;6.60;96.40
9410;DHT22;4744;52.576;13.568;2024-02-21T02:58:46;6.60;96.70
9410;DHT22;4744;52.576;13.568;2024-02-21T03:01:13;6.60;96.90
9410;DHT22;4744;52.576;13.568;2024-02-21T03:03:40;6.60;97.30
9410;DHT22;4744;52.576;13.568;2024-02-21T03:06:07;6.60;97.50
9410;DHT22;4744;52.576;13.568;2024-02-21T03:08:34;6.50;97.80
9410;DHT22;4744;52.576;13.568;2024-02-21T03:11:01;6.50;98.00
9410;DHT22;4744;52.576;13.568;2024-02-21T03:13:28;6.50;98.50
9410;DHT22;4744;52.576;13.568;2024-02-21T03:15:56;6.50;98.70
9410;DHT22;4744;52.576;13.568;2024-02-21T03:18:23;6.50;99.10
9410;DHT22;4744;52.576;13.568;2024-02-21T03:20:50;6.50;99.40
9410;DHT22;4744;52.576;13.568;2024-02-21T03:23:17;6.50;99.70
9410;DHT22;4744;52.576;13.568;2024-02-21T03:25:44;6.40;99.90
9410;DHT22;4744;52.576;13.568;2024-02-21T03:28:11;6.40;99.90
9410;DHT22;4744;52.576;13.568;2024-02-21T03:30:38;6.40;99.90
9410;DHT22;4744;52.576;13.568;2024-02-21T03:33:06;6.40;99.90
9410;DHT22;4744;52.576;13.568;2024-02-21T03:35:33;6.40;99.90
9410;DHT22;4744;52.576;13.568;2024-02-21T03:38:00;6.40;99.90
9410;DHT22;4744;52.576;13.568;2024-02-21T03:40:27;6.40;99.90
9410;DHT22;4744;52.576;13.568;2024-02-21T03:42:54;6.40;99.90
9410;DHT22;4744;52.576;13.568;2024-02-21T03:45:21;6.40;99.90
9410;DHT22;4744;52.576;13.568;2024-02-21T03:47:47;6.30;99.90
9410;DHT22;4744;52.576;13.568;2024-02-21T03:50:16;6.30;99.90
9410;DHT22;4744;52.576;13.568;2024-02-21T03:52:43;6.30;99.90
9410;DHT22;4744;52.576;13.568;2024-02-21T03:55:09;6.30;99.90
9410;DHT22;4744;52.576;13.568;2024-02-21T03:57:36;6.30;99.90
9410;DHT22;4744;52.576;13.568;2024-02-21T04:00:06;6.20;99.90
9410;DHT22;4744;52.576;13.568;2024-02-21T04:02:36;6.20;99.90
9410;DHT22;4744;52.576;13.568;2024-02-21T04:05:04;6.20;99.90
9410;DHT22;4744;52.576;13.568;2024-02-21T04:07:32;6.20;99.90
9410;DHT22;4744;52.576;13.568;2024-02-21T04:09:59;6.30;99.90
9410;DHT22;4744;52.576;13.568;2024-02-21T04:12:26;6.20;99.90
9410;DHT22;4744;52.576;13.568;2024-02-21T04:14:53;6.20;99.90
9410;DHT22;4744;52.576;13.568;2024-02-21T04:17:20;6.20;99.90
9410;DHT22;4744;52.576;13.568;2024-02-21T04:19:47;6.20;99.90
9410;DHT22;4744;52.576;13.568;2024-02-21T04:22:14;6.20;99.90
9410;DHT22;4744;52.576;13.568;2024-02-21T04:24:42;6.30;99.90
9410;DHT22;4744;52.576;13.568;2024-02-21T04:27:09;6.20;99.90
9410;DHT22;4744;52.576;13.568;2024-02-21T04:29:35;6.30;99.90
9410;DHT22;4744;52.576;13.568;2024-02-21T04:32:03;6.30;99.90
9410;DHT22;4744;52.576;13.568;2024-02-21T04:34:32;6.20;99.90
9410;DHT22;4744;52.576;13.568;2024-02-21T04:36:59;6.30;99.90
9410;DHT22;4744;52.576;13.568;2024-02-21T04:39:26;6.20;99.90
9410;DHT22;4744;52.576;13.568;2024-02-21T04:41:54;6.20;99.90
9410;DHT22;4744;52.576;13.568;2024-02-21T04:44:21;6.30;99.90
9410;DHT22;4744;52.576;13.568;2024-02-21T04:46:48;6.30;99.90
9410;DHT22;4744;52.576;13.568;2024-02-21T04:49:15;6.30;99.90
9410;DHT22;4744;52.576;13.568;2024-02-21T04:51:42;6.30;99.90
9410;DHT22;4744;52.576;13.568;2024-02-21T04:54:09;6.30;99.90
9410;DHT22;4744;52.576;13.568;2024-02-21T04:56:36;6.30;99.90
9410;DHT22;4744;52.576;13.568;2024-02-21T04:59:04;6.20;99.90
9410;DHT22;4744;52.576;13.568;2024-02-21T05:01:31;6.20;99.90
9410;DHT22;4744;52.576;13.568;2024-02-21T05:03:58;6.30;99.90
9410;DHT22;4744;52.576;13.568;2024-02-21T05:06:25;6.30;99.90
9410;DHT22;4744;52.576;13.568;2024-02-21T05:08:52;6.20;99.90
9410;DHT22;4744;52.576;13.568;2024-02-21T05:11:20;6.20;99.90
9410;DHT22;4744;52.576;13.568;2024-02-21T05:13:47;6.20;99.90
9410;DHT22;4744;52.576;13.568;2024-02-21T05:16:15;6.20;99.90
9410;DHT22;4744;52.576;13.568;2024-02-21T05:18:42;6.20;99.90
9410;DHT22;4744;52.576;13.568;2024-02-21T05:21:09;6.20;99.90
9410;DHT22;4744;52.576;13.568;2024-02-21T05:23:36;6.20;99.90
9410;DHT22;4744;52.576;13.568;2024-02-21T05:26:05;6.20;99.90
9410;DHT22;4744;52.576;13.568;2024-02-21T05:28:32;6.20;99.90
9410;DHT22;4744;52.576;13.568;2024-02-21T05:30:58;6.20;99.90
9410;DHT22;4744;52.576;13.568;2024-02-21T05:33:27;6.20;99.90
9410;DHT22;4744;52.576;13.568;2024-02-21T05:35:54;6.20;99.90
9410;DHT22;4744;52.576;13.568;2024-02-21T05:38:21;6.30;99.90
9410;DHT22;4744;52.576;13.568;2024-02-21T05:40:48;6.30;99.90
9410;DHT22;4744;52.576;13.568;2024-02-21T05:43:15;6.20;99.90
9410;DHT22;4744;52.576;13.568;2024-02-21T05:45:42;6.20;99.90
9410;DHT22;4744;52.576;13.568;2024-02-21T05:48:08;6.30;99.90
9410;DHT22;4744;52.576;13.568;2024-02-21T05:50:37;6.30;99.90
9410;DHT22;4744;52.576;13.568;2024-02-21T05:53:04;6.30;99.90
9410;DHT22;4744;52.576;13.568;2024-02-21T05:55:30;6.30;99.90
9410;DHT22;4744;52.576;13.568;2024-02-21T05:57:57;6.30;99.90
9410;DHT22;4744;52.576;13.568;2024-02-21T06:00:24;6.30;99.90
9410;DHT22;4744;52.576;13.568;2024-02-21T06:02:51;6.30;99.90
9410;DHT22;4744;52.576;13.568;2024-02-21T06:05:18;6.40;99.90
9410;DHT22;4744;52.576;13.568;2024-02-21T06:07:46;6.40;99.90
9410;DHT22;4744;52.576;13.568;2024-02-21T06:10:14;6.40;99.90
9410;DHT22;4744;52.576;13.568;2024-02-21T06:12:41;6.40;99.90
9410;DHT22;4744;52.576;13.568;2024-02-21T06:15:08;6.40;99.90
9410;DHT22;4744;52.576;13.568;2024-02-21T06:17:35;6.40;99.90
9410;DHT22;4744;52.576;13.568;2024-02-21T06:20:02;6.40;99.90
9410;DHT22;4744;52.576;13.568;2024-02-21T06:22:30;6.40;99.90
9410;DHT22;4744;52.576;13.568;2024-02-21T06:24:58;6.40;99.90
9410;DHT22;4744;52.576;13.568;2024-02-21T06:27:25;6.40;99.90
9410;DHT22;4744;52.576;13.568;2024-02-21T06:29:52;6.40;99.90
9410;DHT22;4744;52.576;13.568;2024-02-21T06:32:19;6.40;99.90
9410;DHT22;4744;52.576;13.568;2024-02-21T06:34:46;6.40;99.90
9410;DHT22;4744;52.576;13.568;2024-02-21T06:37:13;6.40;99.90
9410;DHT22;4744;52.576;13.568;2024-02-21T06:39:40;6.40;99.90
9410;DHT22;4744;52.576;13.568;2024-02-21T06:42:08;6.40;99.90
9410;DHT22;4744;52.576;13.568;2024-02-21T06:44:35;6.40;99.90
9410;DHT22;4744;52.576;13.568;2024-02-21T06:47:06;6.40;99.90
9410;DHT22;4744;52.576;13.568;2024-02-21T06:49:31;6.40;99.90
9410;DHT22;4744;52.576;13.568;2024-02-21T06:51:58;6.50;99.90
9410;DHT22;4744;52.576;13.568;2024-02-21T06:54:25;6.50;99.90
9410;DHT22;4744;52.576;13.568;2024-02-21T06:56:52;6.50;99.90
9410;DHT22;4744;52.576;13.568;2024-02-21T06:59:20;6.50;99.90
9410;DHT22;4744;52.576;13.568;2024-02-21T07:01:48;6.50;99.90
9410;DHT22;4744;52.576;13.568;2024-02-21T07:04:15;6.50;99.90
9410;DHT22;4744;52.576;13.568;2024-02-21T07:06:42;6.50;99.90
9410;DHT22;4744;52.576;13.568;2024-02-21T07:09:09;6.50;99.90
9410;DHT22;4744;52.576;13.568;2024-02-21T07:11:36;6.60;99.90
9410;DHT22;4744;52.576;13.568;2024-02-21T07:14:03;6.60;99.90
9410;DHT22;4744;52.576;13.568;2024-02-21T07:16:31;6.60;99.90
9410;DHT22;4744;52.576;13.568;2024-02-21T07:18:58;6.60;99.90
9410;DHT22;4744;52.576;13.568;2024-02-21T07:21:25;6.60;99.90
9410;DHT22;4744;52.576;13.568;2024-02-21T07:23:52;6.60;99.90
9410;DHT22;4744;52.576;13.568;2024-02-21T07:26:19;6.60;99.90
9410;DHT22;4744;52.576;13.568;2024-02-21T07:28:47;6.60;99.90
9410;DHT22;4744;52.576;13.568;2024-02-21T07:31:14;6.60;99.90
9410;DHT22;4744;52.576;13.568;2024-02-21T07:33:42;6.70;99.90
9410;DHT22;4744;52.576;13.568;2024-02-21T07:36:10;6.70;99.90
9410;DHT22;4744;52.576;13.568;2024-02-21T07:38:37;6.70;99.90
9410;DHT22;4744;52.576;13.568;2024-02-21T07:41:04;6.80;99.90
9410;DHT22;4744;52.576;13.568;2024-02-21T07:43:31;6.80;99.90
9410;DHT22;4744;52.576;13.568;2024-02-21T07:45:58;6.80;99.90
9410;DHT22;4744;52.576;13.568;2024-02-21T07:48:25;6.80;99.90
9410;DHT22;4744;52.576;13.568;2024-02-21T07:50:54;6.80;99.80
9410;DHT22;4744;52.576;13.568;2024-02-21T07:53:20;6.90;99.40
9410;DHT22;4744;52.576;13.568;2024-02-21T07:55:47;6.90;99.20
9410;DHT22;4744;52.576;13.568;2024-02-21T07:58:14;6.90;99.30
9410;DHT22;4744;52.576;13.568;2024-02-21T08:00:41;6.90;99.30
9410;DHT22;4744;52.576;13.568;2024-02-21T08:03:08;6.90;99.30
9410;DHT22;4744;52.576;13.568;2024-02-21T08:05:35;6.90;99.10
9410;DHT22;4744;52.576;13.568;2024-02-21T08:08:04;6.90;99.40
9410;DHT22;4744;52.576;13.568;2024-02-21T08:10:30;6.80;99.40
9410;DHT22;4744;52.576;13.568;2024-02-21T08:12:57;6.80;98.80
9410;DHT22;4744;52.576;13.568;2024-02-21T08:15:24;6.90;98.80
9410;DHT22;4744;52.576;13.568;2024-02-21T08:17:55;6.90;98.80
9410;DHT22;4744;52.576;13.568;2024-02-21T08:20:25;6.90;98.40
9410;DHT22;4744;52.576;13.568;2024-02-21T08:22:51;6.90;98.70
9410;DHT22;4744;52.576;13.568;2024-02-21T08:25:20;6.90;99.00
9410;DHT22;4744;52.576;13.568;2024-02-21T08:27:47;6.90;98.90
9410;DHT22;4744;52.576;13.568;2024-02-21T08:30:14;6.90;98.60
9410;DHT22;4744;52.576;13.568;2024-02-21T08:32:41;6.90;98.60
9410;DHT22;4744;52.576;13.568;2024-02-21T08:35:09;7.00;98.40
9410;DHT22;4744;52.576;13.568;2024-02-21T08:37:35;7.00;98.50
9410;DHT22;4744;52.576;13.568;2024-02-21T08:40:03;7.00;98.40
9410;DHT22;4744;52.576;13.568;2024-02-21T08:42:35;7.00;98.00
9410;DHT22;4744;52.576;13.568;2024-02-21T08:45:02;7.10;97.60
9410;DHT22;4744;52.576;13.568;2024-02-21T08:47:29;7.10;97.70
9410;DHT22;4744;52.576;13.568;2024-02-21T08:49:56;7.20;97.30
9410;DHT22;4744;52.576;13.568;2024-02-21T08:52:22;7.20;97.90
9410;DHT22;4744;52.576;13.568;2024-02-21T08:54:49;7.20;98.00
9410;DHT22;4744;52.576;13.568;2024-02-21T08:57:19;7.20;96.90
9410;DHT22;4744;52.576;13.568;2024-02-21T08:59:47;7.30;96.80
9410;DHT22;4744;52.576;13.568;2024-02-21T09:02:14;7.30;96.70
9410;DHT22;4744;52.576;13.568;2024-02-21T09:04:42;7.40;96.90
9410;DHT22;4744;52.576;13.568;2024-02-21T09:07:09;7.40;96.50
9410;DHT22;4744;52.576;13.568;2024-02-21T09:09:36;7.40;96.10
9410;DHT22;4744;52.576;13.568;2024-02-21T09:12:05;7.50;95.70
9410;DHT22;4744;52.576;13.568;2024-02-21T09:14:32;7.50;95.60
9410;DHT22;4744;52.576;13.568;2024-02-21T09:17:00;7.50;95.80
9410;DHT22;4744;52.576;13.568;2024-02-21T09:19:28;7.50;95.70
9410;DHT22;4744;52.576;13.568;2024-02-21T09:21:55;7.50;95.00
9410;DHT22;4744;52.576;13.568;2024-02-21T09:24:22;7.50;95.50
9410;DHT22;4744;52.576;13.568;2024-02-21T09:26:49;7.50;95.80
9410;DHT22;4744;52.576;13.568;2024-02-21T09:31:43;7.50;95.50
9410;DHT22;4744;52.576;13.568;2024-02-21T09:34:12;7.50;95.40
9410;DHT22;4744;52.576;13.568;2024-02-21T09:36:39;7.60;95.50
9410;DHT22;4744;52.576;13.568;2024-02-21T09:39:06;7.60;95.40
9410;DHT22;4744;52.576;13.568;2024-02-21T09:41:36;7.70;95.00
9410;DHT22;4744;52.576;13.568;2024-02-21T09:44:05;7.80;94.70
9410;DHT22;4744;52.576;13.568;2024-02-21T09:46:54;7.80;94.40
9410;DHT22;4744;52.576;13.568;2024-02-21T09:49:30;8.00;94.90
9410;DHT22;4744;52.576;13.568;2024-02-21T09:52:00;8.10;93.50
9410;DHT22;4744;52.576;13.568;2024-02-21T09:54:33;8.30;92.80
9410;DHT22;4744;52.576;13.568;2024-02-21T09:57:00;8.30;92.20
9410;DHT22;4744;52.576;13.568;2024-02-21T09:59:28;8.40;91.70
9410;DHT22;4744;52.576;13.568;2024-02-21T10:01:55;8.50;91.50
9410;DHT22;4744;52.576;13.568;2024-02-21T10:04:23;8.40;90.50
9410;DHT22;4744;52.576;13.568;2024-02-21T10:06:53;8.40;90.90
9410;DHT22;4744;52.576;13.568;2024-02-21T10:09:21;8.40;90.90
9410;DHT22;4744;52.576;13.568;2024-02-21T10:11:48;8.40;90.80
9410;DHT22;4744;52.576;13.568;2024-02-21T10:14:16;8.40;90.90
9410;DHT22;4744;52.576;13.568;2024-02-21T10:16:44;8.40;90.90
9410;DHT22;4744;52.576;13.568;2024-02-21T10:19:18;8.40;90.90
9410;DHT22;4744;52.576;13.568;2024-02-21T10:22:02;8.50;89.80
9410;DHT22;4744;52.576;13.568;2024-02-21T10:24:30;8.50;90.30
9410;DHT22;4744;52.576;13.568;2024-02-21T10:27:02;8.50;90.10
9410;DHT22;4744;52.576;13.568;2024-02-21T10:29:30;8.50;90.00
9410;DHT22;4744;52.576;13.568;2024-02-21T10:32:07;8.60;90.00
9410;DHT22;4744;52.576;13.568;2024-02-21T10:34:35;8.60;89.30
9410;DHT22;4744;52.576;13.568;2024-02-21T10:37:04;8.60;89.50
9410;DHT22;4744;52.576;13.568;2024-02-21T10:39:32;8.70;88.70
9410;DHT22;4744;52.576;13.568;2024-02-21T10:42:00;8.80;88.90
9410;DHT22;4744;52.576;13.568;2024-02-21T10:44:30;8.80;88.30
9410;DHT22;4744;52.576;13.568;2024-02-21T10:46:58;8.90;88.70
9410;DHT22;4744;52.576;13.568;2024-02-21T10:49:26;8.90;88.10
9410;DHT22;4744;52.576;13.568;2024-02-21T10:51:54;8.90;88.10
9410;DHT22;4744;52.576;13.568;2024-02-21T10:54:40;8.90;87.90
9410;DHT22;4744;52.576;13.568;2024-02-21T10:57:10;8.90;87.10
9410;DHT22;4744;52.576;13.568;2024-02-21T10:59:39;8.90;87.30
9410;DHT22;4744;52.576;13.568;2024-02-21T11:02:07;8.90;87.80
9410;DHT22;4744;52.576;13.568;2024-02-21T11:04:34;8.90;87.80
9410;DHT22;4744;52.576;13.568;2024-02-21T11:07:03;8.80;87.50
9410;DHT22;4744;52.576;13.568;2024-02-21T11:09:32;8.80;87.50
9410;DHT22;4744;52.576;13.568;2024-02-21T11:12:02;8.80;88.20
9410;DHT22;4744;52.576;13.568;2024-02-21T11:14:30;8.80;88.40
9410;DHT22;4744;52.576;13.568;2024-02-21T11:17:01;8.80;89.10
9410;DHT22;4744;52.576;13.568;2024-02-21T11:19:29;8.80;89.60
9410;DHT22;4744;52.576;13.568;2024-02-21T11:21:57;8.80;89.20
9410;DHT22;4744;52.576;13.568;2024-02-21T11:24:27;8.70;89.80
9410;DHT22;4744;52.576;13.568;2024-02-21T11:26:55;8.70;90.80
9410;DHT22;4744;52.576;13.568;2024-02-21T11:29:25;8.80;91.70
9410;DHT22;4744;52.576;13.568;2024-02-21T11:31:53;8.90;91.10
9410;DHT22;4744;52.576;13.568;2024-02-21T11:34:20;9.00;90.90
9410;DHT22;4744;52.576;13.568;2024-02-21T11:36:47;9.00;90.10
9410;DHT22;4744;52.576;13.568;2024-02-21T11:39:23;9.00;89.10
9410;DHT22;4744;52.576;13.568;2024-02-21T11:42:03;9.00;89.30
9410;DHT22;4744;52.576;13.568;2024-02-21T11:44:32;9.10;89.10
9410;DHT22;4744;52.576;13.568;2024-02-21T11:46:59;9.20;89.10
9410;DHT22;4744;52.576;13.568;2024-02-21T11:49:28;9.20;90.30
9410;DHT22;4744;52.576;13.568;2024-02-21T11:51:58;9.40;89.40
9410;DHT22;4744;52.576;13.568;2024-02-21T11:54:26;9.40;87.60
9410;DHT22;4744;52.576;13.568;2024-02-21T11:56:53;9.50;88.10
9410;DHT22;4744;52.576;13.568;2024-02-21T11:59:20;9.50;87.30
9410;DHT22;4744;52.576;13.568;2024-02-21T12:01:49;9.60;86.80
9410;DHT22;4744;52.576;13.568;2024-02-21T12:04:17;9.60;86.30
9410;DHT22;4744;52.576;13.568;2024-02-21T12:06:45;9.60;86.40
9410;DHT22;4744;52.576;13.568;2024-02-21T12:09:14;9.60;85.90
9410;DHT22;4744;52.576;13.568;2024-02-21T12:11:41;9.60;87.00
9410;DHT22;4744;52.576;13.568;2024-02-21T12:14:08;9.60;86.20
9410;DHT22;4744;52.576;13.568;2024-02-21T12:16:36;9.60;85.70
9410;DHT22;4744;52.576;13.568;2024-02-21T12:19:05;9.70;85.30
9410;DHT22;4744;52.576;13.568;2024-02-21T12:21:33;9.70;85.00
9410;DHT22;4744;52.576;13.568;2024-02-21T12:24:11;9.80;84.70
9410;DHT22;4744;52.576;13.568;2024-02-21T12:26:39;9.90;84.40
9410;DHT22;4744;52.576;13.568;2024-02-21T12:29:06;10.00;84.50
9410;DHT22;4744;52.576;13.568;2024-02-21T12:31:35;10.00;84.00
9410;DHT22;4744;52.576;13.568;2024-02-21T12:34:02;10.10;82.90
9410;DHT22;4744;52.576;13.568;2024-02-21T12:36:30;10.10;83.20
9410;DHT22;4744;52.576;13.568;2024-02-21T12:38:57;10.10;83.30
9410;DHT22;4744;52.576;13.568;2024-02-21T12:41:24;10.10;83.50
9410;DHT22;4744;52.576;13.568;2024-02-21T12:43:52;10.20;82.80
9410;DHT22;4744;52.576;13.568;2024-02-21T12:46:19;10.20;82.70
9410;DHT22;4744;52.576;13.568;2024-02-21T12:48:46;10.30;82.30
9410;DHT22;4744;52.576;13.568;2024-02-21T12:51:13;10.30;83.50
9410;DHT22;4744;52.576;13.568;2024-02-21T12:53:42;10.40;82.80
9410;DHT22;4744;52.576;13.568;2024-02-21T12:56:09;10.60;82.50
9410;DHT22;4744;52.576;13.568;2024-02-21T12:58:36;10.60;79.90
9410;DHT22;4744;52.576;13.568;2024-02-21T13:01:03;10.70;80.70
9410;DHT22;4744;52.576;13.568;2024-02-21T13:03:30;10.70;79.90
9410;DHT22;4744;52.576;13.568;2024-02-21T13:05:57;10.60;79.70
9410;DHT22;4744;52.576;13.568;2024-02-21T13:08:24;10.50;80.70
9410;DHT22;4744;52.576;13.568;2024-02-21T13:10:53;10.50;81.10
9410;DHT22;4744;52.576;13.568;2024-02-21T13:13:20;10.40;80.90
9410;DHT22;4744;52.576;13.568;2024-02-21T13:15:47;10.40;81.10
9410;DHT22;4744;52.576;13.568;2024-02-21T13:18:13;10.40;81.50
9410;DHT22;4744;52.576;13.568;2024-02-21T13:20:40;10.50;80.70
9410;DHT22;4744;52.576;13.568;2024-02-21T13:23:07;10.40;80.80
9410;DHT22;4744;52.576;13.568;2024-02-21T13:25:34;10.40;81.30
9410;DHT22;4744;52.576;13.568;2024-02-21T13:28:03;10.40;81.00
9410;DHT22;4744;52.576;13.568;2024-02-21T13:30:30;10.30;81.00
9410;DHT22;4744;52.576;13.568;2024-02-21T13:32:57;10.20;81.20
9410;DHT22;4744;52.576;13.568;2024-02-21T13:35:24;10.20;80.50
9410;DHT22;4744;52.576;13.568;2024-02-21T13:37:51;10.10;80.50
9410;DHT22;4744;52.576;13.568;2024-02-21T13:40:18;10.10;81.40
9410;DHT22;4744;52.576;13.568;2024-02-21T13:42:45;10.00;82.00
9410;DHT22;4744;52.576;13.568;2024-02-21T13:45:14;10.10;82.00
9410;DHT22;4744;52.576;13.568;2024-02-21T13:47:41;10.10;81.50
9410;DHT22;4744;52.576;13.568;2024-02-21T13:50:08;10.00;81.60
9410;DHT22;4744;52.576;13.568;2024-02-21T13:52:36;10.00;81.80
9410;DHT22;4744;52.576;13.568;2024-02-21T13:55:03;10.00;80.80
9410;DHT22;4744;52.576;13.568;2024-02-21T13:57:31;10.00;81.80
9410;DHT22;4744;52.576;13.568;2024-02-21T13:59:58;10.00;82.10
9410;DHT22;4744;52.576;13.568;2024-02-21T14:02:27;10.00;81.70
9410;DHT22;4744;52.576;13.568;2024-02-21T14:04:54;10.00;80.90
9410;DHT22;4744;52.576;13.568;2024-02-21T14:07:20;10.00;81.10
9410;DHT22;4744;52.576;13.568;2024-02-21T14:09:48;10.00;81.20
9410;DHT22;4744;52.576;13.568;2024-02-21T14:12:15;10.00;81.00
9410;DHT22;4744;52.576;13.568;2024-02-21T14:14:46;10.00;80.70
9410;DHT22;4744;52.576;13.568;2024-02-21T14:17:12;10.00;80.30
9410;DHT22;4744;52.576;13.568;2024-02-21T14:19:41;10.00;80.70
9410;DHT22;4744;52.576;13.568;2024-02-21T14:22:08;9.90;81.00
9410;DHT22;4744;52.576;13.568;2024-02-21T14:24:36;9.80;80.90
9410;DHT22;4744;52.576;13.568;2024-02-21T14:27:04;9.80;81.40
9410;DHT22;4744;52.576;13.568;2024-02-21T14:29:31;9.80;81.50
9410;DHT22;4744;52.576;13.568;2024-02-21T14:31:58;9.80;81.30
9410;DHT22;4744;52.576;13.568;2024-02-21T14:34:24;9.70;81.70
9410;DHT22;4744;52.576;13.568;2024-02-21T14:36:54;9.80;81.10
9410;DHT22;4744;52.576;13.568;2024-02-21T14:39:20;9.80;81.50
9410;DHT22;4744;52.576;13.568;2024-02-21T14:41:47;9.80;82.10
9410;DHT22;4744;52.576;13.568;2024-02-21T14:44:14;9.80;81.10
9410;DHT22;4744;52.576;13.568;2024-02-21T14:46:41;9.80;81.00
9410;DHT22;4744;52.576;13.568;2024-02-21T14:49:08;9.80;81.10
9410;DHT22;4744;52.576;13.568;2024-02-21T14:51:35;9.80;81.00
9410;DHT22;4744;52.576;13.568;2024-02-21T14:54:03;9.90;80.10
9410;DHT22;4744;52.576;13.568;2024-02-21T14:56:30;9.90;80.20
9410;DHT22;4744;52.576;13.568;2024-02-21T14:58:58;9.90;79.80
9410;DHT22;4744;52.576;13.568;2024-02-21T15:01:25;10.00;79.50
9410;DHT22;4744;52.576;13.568;2024-02-21T15:03:52;10.00;79.50
9410;DHT22;4744;52.576;13.568;2024-02-21T15:06:18;10.00;79.00
9410;DHT22;4744;52.576;13.568;2024-02-21T15:08:46;10.00;79.30
9410;DHT22;4744;52.576;13.568;2024-02-21T15:11:15;10.00;79.40
9410;DHT22;4744;52.576;13.568;2024-02-21T15:13:43;10.00;79.10
9410;DHT22;4744;52.576;13.568;2024-02-21T15:16:11;10.00;78.90
9410;DHT22;4744;52.576;13.568;2024-02-21T15:18:38;10.00;79.50
9410;DHT22;4744;52.576;13.568;2024-02-21T15:21:05;10.00;78.10
9410;DHT22;4744;52.576;13.568;2024-02-21T15:23:33;10.00;78.40
9410;DHT22;4744;52.576;13.568;2024-02-21T15:26:00;10.00;78.40
9410;DHT22;4744;52.576;13.568;2024-02-21T15:28:28;10.00;78.70
9410;DHT22;4744;52.576;13.568;2024-02-21T15:30:55;10.00;78.50
9410;DHT22;4744;52.576;13.568;2024-02-21T15:33:22;10.00;78.40
9410;DHT22;4744;52.576;13.568;2024-02-21T15:35:49;10.00;78.80
9410;DHT22;4744;52.576;13.568;2024-02-21T15:38:16;10.00;78.60
9410;DHT22;4744;52.576;13.568;2024-02-21T15:40:45;10.00;78.30
9410;DHT22;4744;52.576;13.568;2024-02-21T15:43:12;9.90;78.30
9410;DHT22;4744;52.576;13.568;2024-02-21T15:45:40;9.80;78.60
9410;DHT22;4744;52.576;13.568;2024-02-21T15:48:07;9.80;78.50
9410;DHT22;4744;52.576;13.568;2024-02-21T15:50:34;9.80;78.10
9410;DHT22;4744;52.576;13.568;2024-02-21T15:53:03;9.80;78.00
9410;DHT22;4744;52.576;13.568;2024-02-21T15:55:30;9.80;78.00
9410;DHT22;4744;52.576;13.568;2024-02-21T15:57:57;9.70;78.10
9410;DHT22;4744;52.576;13.568;2024-02-21T16:00:24;9.70;78.00
9410;DHT22;4744;52.576;13.568;2024-02-21T16:02:52;9.60;77.60
9410;DHT22;4744;52.576;13.568;2024-02-21T16:05:19;9.60;77.10